sensor_id;sensor_type;location;lat;lon;timestamp;pressure;altitude;pressure_sealevel;temperature;humidity
5062;BME280;2351;50.812;12.872;2024-02-26T00:01:14;96561.44;;;-0.52;92.40
5062;BME280;2351;50.812;12.872;2024-02-26T00:03:45;96559.06;;;-0.55;92.13
5062;BME280;2351;50.812;12.872;2024-02-26T00:06:17;96564.53;;;-0.60;92.64
5062;BME280;2351;50.812;12.872;2024-02-26T00:08:49;96560.38;;;-0.63;92.98
5062;BME280;2351;50.812;12.872;2024-02-26T00:11:21;96554.25;;;-0.76;91.86
5062;BME280;2351;50.812;12.872;2024-02-26T00:13:54;96558.94;;;-0.81;93.45
5062;BME280;2351;50.812;12.872;2024-02-26T00:16:26;96554.47;;;-0.79;94.01
5062;BME280;2351;50.812;12.872;2024-02-26T00:18:58;96546.75;;;-0.81;94.10
5062;BME280;2351;50.812;12.872;2024-02-26T00:21:29;96544.34;;;-0.84;94.15
5062;BME280;2351;50.812;12.872;2024-02-26T00:24:01;96541.13;;;-0.87;94.17
5062;BME280;2351;50.812;12.872;2024-02-26T00:26:33;96544.63;;;-0.88;94.01
5062;BME280;2351;50.812;12.872;2024-02-26T00:29:06;96540.47;;;-0.91;94.46
5062;BME280;2351;50.812;12.872;2024-02-26T00:31:38;96534.19;;;-1.01;93.93
5062;BME280;2351;50.812;12.872;2024-02-26T00:34:09;96523.34;;;-1.08;95.35
5062;BME280;2351;50.812;12.872;2024-02-26T00:36:41;96524.06;;;-1.06;95.76
5062;BME280;2351;50.812;12.872;2024-02-26T00:39:13;96525.19;;;-1.10;95.67
5062;BME280;2351;50.812;12.872;2024-02-26T00:41:44;96520.09;;;-1.12;96.13
5062;BME280;2351;50.812;12.872;2024-02-26T00:44:18;96527.03;;;-1.12;95.62
5062;BME280;2351;50.812;12.872;2024-02-26T00:46:50;96521.22;;;-1.16;95.77
5062;BME280;2351;50.812;12.872;2024-02-26T00:49:21;96522.16;;;-1.17;96.22
5062;BME280;2351;50.812;12.872;2024-02-26T00:51:53;96524.00;;;-1.19;95.92
5062;BME280;2351;50.812;12.872;2024-02-26T00:54:25;96519.63;;;-1.18;96.45
5062;BME280;2351;50.812;12.872;2024-02-26T00:56:56;96521.59;;;-1.22;96.25
5062;BME280;2351;50.812;12.872;2024-02-26T00:59:29;96507.97;;;-1.26;96.48
5062;BME280;2351;50.812;12.872;2024-02-26T01:02:01;96508.03;;;-1.27;96.74
5062;BME280;2351;50.812;12.872;2024-02-26T01:04:34;96505.56;;;-1.29;96.48
5062;BME280;2351;50.812;12.872;2024-02-26T01:07:06;96505.56;;;-1.29;96.69
5062;BME280;2351;50.812;12.872;2024-02-26T01:09:37;96502.22;;;-1.31;96.49
5062;BME280;2351;50.812;12.872;2024-02-26T01:12:09;96497.94;;;-1.32;96.52
5062;BME280;2351;50.812;12.872;2024-02-26T01:14:42;96495.47;;;-1.33;97.35
5062;BME280;2351;50.812;12.872;2024-02-26T01:17:14;96497.38;;;-1.37;96.95
5062;BME280;2351;50.812;12.872;2024-02-26T01:19:46;96489.59;;;-1.37;97.31
5062;BME280;2351;50.812;12.872;2024-02-26T01:22:18;96484.34;;;-1.35;97.63
5062;BME280;2351;50.812;12.872;2024-02-26T01:24:50;96485.16;;;-1.35;97.01
5062;BME280;2351;50.812;12.872;2024-02-26T01:27:21;96483.41;;;-1.34;97.64
5062;BME280;2351;50.812;12.872;2024-02-26T01:29:58;96469.56;;;-1.35;97.49
5062;BME280;2351;50.812;12.872;2024-02-26T01:32:30;96474.69;;;-1.33;98.06
5062;BME280;2351;50.812;12.872;2024-02-26T01:35:02;96469.56;;;-1.35;97.45
5062;BME280;2351;50.812;12.872;2024-02-26T01:37:38;96467.91;;;-1.36;97.83
5062;BME280;2351;50.812;12.872;2024-02-26T01:40:11;96464.75;;;-1.41;97.25
5062;BME280;2351;50.812;12.872;2024-02-26T01:42:48;96466.06;;;-1.48;97.81
5062;BME280;2351;50.812;12.872;2024-02-26T01:45:21;96455.78;;;-1.50;98.36
5062;BME280;2351;50.812;12.872;2024-02-26T01:47:55;96456.81;;;-1.53;97.74
5062;BME280;2351;50.812;12.872;2024-02-26T01:50:28;96456.06;;;-1.55;98.37
5062;BME280;2351;50.812;12.872;2024-02-26T01:53:00;96445.78;;;-1.56;97.88
5062;BME280;2351;50.812;12.872;2024-02-26T01:55:32;96456.34;;;-1.59;98.39
5062;BME280;2351;50.812;12.872;2024-02-26T01:58:05;96445.50;;;-1.66;98.31
5062;BME280;2351;50.812;12.872;2024-02-26T02:00:38;96445.50;;;-1.66;98.81
5062;BME280;2351;50.812;12.872;2024-02-26T02:03:10;96454.00;;;-1.64;98.82
5062;BME280;2351;50.812;12.872;2024-02-26T02:05:42;96440.31;;;-1.66;98.82
5062;BME280;2351;50.812;12.872;2024-02-26T02:08:14;96437.81;;;-1.68;98.42
5062;BME280;2351;50.812;12.872;2024-02-26T02:10:46;96435.50;;;-1.72;99.43
5062;BME280;2351;50.812;12.872;2024-02-26T02:13:19;96435.50;;;-1.72;98.99
5062;BME280;2351;50.812;12.872;2024-02-26T02:15:52;96432.78;;;-1.71;99.36
5062;BME280;2351;50.812;12.872;2024-02-26T02:18:25;96440.69;;;-1.72;99.71
5062;BME280;2351;50.812;12.872;2024-02-26T02:20:59;96445.69;;;-1.69;99.34
5062;BME280;2351;50.812;12.872;2024-02-26T02:23:31;96450.78;;;-1.68;99.63
5062;BME280;2351;50.812;12.872;2024-02-26T02:26:03;96450.41;;;-1.61;100.00
5062;BME280;2351;50.812;12.872;2024-02-26T02:28:35;96460.50;;;-1.57;100.00
5062;BME280;2351;50.812;12.872;2024-02-26T02:31:07;96453.47;;;-1.55;100.00
5062;BME280;2351;50.812;12.872;2024-02-26T02:33:39;96459.22;;;-1.49;100.00
5062;BME280;2351;50.812;12.872;2024-02-26T02:36:12;96461.81;;;-1.49;100.00
5062;BME280;2351;50.812;12.872;2024-02-26T02:38:48;96455.03;;;-1.52;100.00
5062;BME280;2351;50.812;12.872;2024-02-26T02:41:20;96456.81;;;-1.53;100.00
5062;BME280;2351;50.812;12.872;2024-02-26T02:43:52;96452.44;;;-1.52;100.00
5062;BME280;2351;50.812;12.872;2024-02-26T02:46:24;96451.59;;;-1.53;100.00
5062;BME280;2351;50.812;12.872;2024-02-26T02:48:55;96461.13;;;-1.53;100.00
5062;BME280;2351;50.812;12.872;2024-02-26T02:51:28;96456.97;;;-1.56;100.00
5062;BME280;2351;50.812;12.872;2024-02-26T02:54:00;96451.97;;;-1.59;100.00
5062;BME280;2351;50.812;12.872;2024-02-26T02:56:32;96455.50;;;-1.60;100.00
5062;BME280;2351;50.812;12.872;2024-02-26T02:59:04;96454.69;;;-1.60;100.00
5062;BME280;2351;50.812;12.872;2024-02-26T03:01:35;96459.00;;;-1.61;100.00
5062;BME280;2351;50.812;12.872;2024-02-26T03:04:07;96454.69;;;-1.60;100.00
5062;BME280;2351;50.812;12.872;2024-02-26T03:06:40;96461.34;;;-1.56;100.00
5062;BME280;2351;50.812;12.872;2024-02-26T03:09:12;96461.34;;;-1.56;100.00
5062;BME280;2351;50.812;12.872;2024-02-26T03:11:44;96459.59;;;-1.56;100.00
5062;BME280;2351;50.812;12.872;2024-02-26T03:14:15;96460.50;;;-1.57;100.00
5062;BME280;2351;50.812;12.872;2024-02-26T03:16:47;96464.13;;;-1.59;100.00
5062;BME280;2351;50.812;12.872;2024-02-26T03:19:19;96463.28;;;-1.60;100.00
5062;BME280;2351;50.812;12.872;2024-02-26T03:21:52;96463.38;;;-1.61;100.00
5062;BME280;2351;50.812;12.872;2024-02-26T03:24:24;96457.53;;;-1.65;100.00
5062;BME280;2351;50.812;12.872;2024-02-26T03:26:55;96449.03;;;-1.67;100.00
5062;BME280;2351;50.812;12.872;2024-02-26T03:29:27;96459.59;;;-1.70;100.00
5062;BME280;2351;50.812;12.872;2024-02-26T03:31:59;96458.47;;;-1.80;100.00
5062;BME280;2351;50.812;12.872;2024-02-26T03:34:31;96466.34;;;-1.82;100.00
5062;BME280;2351;50.812;12.872;2024-02-26T03:37:06;96463.94;;;-1.85;100.00
5062;BME280;2351;50.812;12.872;2024-02-26T03:39:39;96461.63;;;-1.90;100.00
5062;BME280;2351;50.812;12.872;2024-02-26T03:42:11;96462.53;;;-1.91;100.00
5062;BME280;2351;50.812;12.872;2024-02-26T03:44:43;96461.88;;;-1.94;100.00
5062;BME280;2351;50.812;12.872;2024-02-26T03:47:15;96461.06;;;-1.95;100.00
5062;BME280;2351;50.812;12.872;2024-02-26T03:49:47;96457.53;;;-1.94;100.00
5062;BME280;2351;50.812;12.872;2024-02-26T03:52:20;96460.88;;;-1.92;100.00
5062;BME280;2351;50.812;12.872;2024-02-26T03:54:52;96455.88;;;-1.95;100.00
5062;BME280;2351;50.812;12.872;2024-02-26T03:57:24;96456.88;;;-1.98;100.00
5062;BME280;2351;50.812;12.872;2024-02-26T03:59:56;96451.88;;;-2.01;100.00
5062;BME280;2351;50.812;12.872;2024-02-26T04:02:27;96461.59;;;-2.04;100.00
5062;BME280;2351;50.812;12.872;2024-02-26T04:04:59;96457.44;;;-2.07;100.00
5062;BME280;2351;50.812;12.872;2024-02-26T04:07:33;96460.09;;;-2.08;100.00
5062;BME280;2351;50.812;12.872;2024-02-26T04:10:08;96456.78;;;-2.10;100.00
5062;BME280;2351;50.812;12.872;2024-02-26T04:12:40;96454.91;;;-2.08;100.00
5062;BME280;2351;50.812;12.872;2024-02-26T04:15:12;96452.41;;;-2.10;100.00
5062;BME280;2351;50.812;12.872;2024-02-26T04:17:44;96454.09;;;-2.09;100.00
5062;BME280;2351;50.812;12.872;2024-02-26T04:20:16;96456.69;;;-2.09;100.00
5062;BME280;2351;50.812;12.872;2024-02-26T04:22:49;96455.81;;;-2.09;100.00
5062;BME280;2351;50.812;12.872;2024-02-26T04:25:21;96453.44;;;-2.13;100.00
5062;BME280;2351;50.812;12.872;2024-02-26T04:27:52;96464.75;;;-2.14;100.00
5062;BME280;2351;50.812;12.872;2024-02-26T04:30:24;96459.63;;;-2.15;100.00
5062;BME280;2351;50.812;12.872;2024-02-26T04:32:56;96471.59;;;-2.13;100.00
5062;BME280;2351;50.812;12.872;2024-02-26T04:35:28;96471.78;;;-2.16;100.00
5062;BME280;2351;50.812;12.872;2024-02-26T04:38:01;96476.03;;;-2.15;100.00
5062;BME280;2351;50.812;12.872;2024-02-26T04:40:33;96476.94;;;-2.16;100.00
5062;BME280;2351;50.812;12.872;2024-02-26T04:43:05;96470.09;;;-2.17;100.00
5062;BME280;2351;50.812;12.872;2024-02-26T04:45:36;96473.50;;;-2.16;100.00
5062;BME280;2351;50.812;12.872;2024-02-26T04:48:08;96468.50;;;-2.19;100.00
5062;BME280;2351;50.812;12.872;2024-02-26T04:50:40;96470.16;;;-2.18;100.00
5062;BME280;2351;50.812;12.872;2024-02-26T04:53:13;96466.75;;;-2.19;100.00
5062;BME280;2351;50.812;12.872;2024-02-26T04:55:44;96472.75;;;-2.18;100.00
5062;BME280;2351;50.812;12.872;2024-02-26T04:58:16;96477.94;;;-2.18;100.00
5062;BME280;2351;50.812;12.872;2024-02-26T05:00:48;96475.56;;;-2.21;100.00
5062;BME280;2351;50.812;12.872;2024-02-26T05:03:20;96477.19;;;-2.20;100.00
5062;BME280;2351;50.812;12.872;2024-02-26T05:05:51;96478.97;;;-2.21;100.00
5062;BME280;2351;50.812;12.872;2024-02-26T05:08:25;96481.72;;;-2.24;100.00
5062;BME280;2351;50.812;12.872;2024-02-26T05:10:56;96480.25;;;-2.28;100.00
5062;BME280;2351;50.812;12.872;2024-02-26T05:13:28;96491.63;;;-2.31;100.00
5062;BME280;2351;50.812;12.872;2024-02-26T05:16:00;96483.00;;;-2.31;100.00
5062;BME280;2351;50.812;12.872;2024-02-26T05:18:31;96489.13;;;-2.32;100.00
5062;BME280;2351;50.812;12.872;2024-02-26T05:21:04;96478.94;;;-2.35;100.00
5062;BME280;2351;50.812;12.872;2024-02-26T05:23:37;96485.06;;;-2.36;100.00
5062;BME280;2351;50.812;12.872;2024-02-26T05:26:09;96490.22;;;-2.36;100.00
5062;BME280;2351;50.812;12.872;2024-02-26T05:28:40;96482.63;;;-2.39;100.00
5062;BME280;2351;50.812;12.872;2024-02-26T05:31:12;96492.13;;;-2.40;100.00
5062;BME280;2351;50.812;12.872;2024-02-26T05:33:44;96476.69;;;-2.42;100.00
5062;BME280;2351;50.812;12.872;2024-02-26T05:36:19;96486.13;;;-2.40;100.00
5062;BME280;2351;50.812;12.872;2024-02-26T05:38:53;96495.59;;;-2.39;100.00
5062;BME280;2351;50.812;12.872;2024-02-26T05:41:25;96493.97;;;-2.42;100.00
5062;BME280;2351;50.812;12.872;2024-02-26T05:43:58;96489.06;;;-2.47;100.00
5062;BME280;2351;50.812;12.872;2024-02-26T05:46:29;96497.88;;;-2.49;100.00
5062;BME280;2351;50.812;12.872;2024-02-26T05:49:01;96497.00;;;-2.50;100.00
5062;BME280;2351;50.812;12.872;2024-02-26T05:51:33;96495.34;;;-2.51;100.00
5062;BME280;2351;50.812;12.872;2024-02-26T05:54:06;96495.16;;;-2.48;100.00
5062;BME280;2351;50.812;12.872;2024-02-26T05:56:38;96498.34;;;-2.43;100.00
5062;BME280;2351;50.812;12.872;2024-02-26T05:59:10;96499.69;;;-2.35;100.00
5062;BME280;2351;50.812;12.872;2024-02-26T06:01:41;96488.88;;;-2.28;100.00
5062;BME280;2351;50.812;12.872;2024-02-26T06:04:13;96486.91;;;-2.24;100.00
5062;BME280;2351;50.812;12.872;2024-02-26T06:06:45;96487.66;;;-2.22;100.00
5062;BME280;2351;50.812;12.872;2024-02-26T06:09:18;96491.94;;;-2.21;100.00
5062;BME280;2351;50.812;12.872;2024-02-26T06:11:50;96490.09;;;-2.19;100.00
5062;BME280;2351;50.812;12.872;2024-02-26T06:14:21;96488.25;;;-2.17;100.00
5062;BME280;2351;50.812;12.872;2024-02-26T06:16:53;96487.91;;;-2.10;100.00
5062;BME280;2351;50.812;12.872;2024-02-26T06:19:25;96491.78;;;-2.03;100.00
5062;BME280;2351;50.812;12.872;2024-02-26T06:21:57;96498.13;;;-1.93;100.00
5062;BME280;2351;50.812;12.872;2024-02-26T06:24:30;96493.09;;;-1.82;100.00
5062;BME280;2351;50.812;12.872;2024-02-26T06:27:01;96484.22;;;-1.63;100.00
5062;BME280;2351;50.812;12.872;2024-02-26T06:29:33;96487.84;;;-1.37;100.00
5062;BME280;2351;50.812;12.872;2024-02-26T06:32:05;96492.56;;;-0.87;100.00
5062;BME280;2351;50.812;12.872;2024-02-26T06:34:37;96479.66;;;0.07;100.00
5062;BME280;2351;50.812;12.872;2024-02-26T06:37:11;96481.25;;;0.85;100.00
5062;BME280;2351;50.812;12.872;2024-02-26T06:39:44;96480.03;;;1.15;100.00
5062;BME280;2351;50.812;12.872;2024-02-26T06:42:16;96478.59;;;1.11;100.00
5062;BME280;2351;50.812;12.872;2024-02-26T06:44:48;96478.94;;;0.94;100.00
5062;BME280;2351;50.812;12.872;2024-02-26T06:47:20;96479.31;;;0.76;100.00
5062;BME280;2351;50.812;12.872;2024-02-26T06:49:52;96482.75;;;0.64;100.00
5062;BME280;2351;50.812;12.872;2024-02-26T06:52:25;96492.16;;;0.53;100.00
5062;BME280;2351;50.812;12.872;2024-02-26T06:54:58;96497.56;;;0.50;100.00
5062;BME280;2351;50.812;12.872;2024-02-26T06:57:30;96499.53;;;0.59;100.00
5062;BME280;2351;50.812;12.872;2024-02-26T07:00:02;96504.63;;;0.74;100.00
5062;BME280;2351;50.812;12.872;2024-02-26T07:02:34;96504.34;;;1.03;100.00
5062;BME280;2351;50.812;12.872;2024-02-26T07:05:06;96504.47;;;1.63;100.00
5062;BME280;2351;50.812;12.872;2024-02-26T07:07:38;96509.69;;;2.91;100.00
5062;BME280;2351;50.812;12.872;2024-02-26T07:10:12;96504.28;;;3.82;100.00
5062;BME280;2351;50.812;12.872;2024-02-26T07:12:43;96501.31;;;4.08;100.00
5062;BME280;2351;50.812;12.872;2024-02-26T07:15:15;96508.50;;;4.58;100.00
5062;BME280;2351;50.812;12.872;2024-02-26T07:17:47;96504.53;;;5.55;100.00
5062;BME280;2351;50.812;12.872;2024-02-26T07:20:19;96501.72;;;6.65;100.00
5062;BME280;2351;50.812;12.872;2024-02-26T07:22:51;96502.41;;;7.61;100.00
5062;BME280;2351;50.812;12.872;2024-02-26T07:25:24;96495.75;;;8.29;100.00
5062;BME280;2351;50.812;12.872;2024-02-26T07:27:55;96495.13;;;9.14;100.00
5062;BME280;2351;50.812;12.872;2024-02-26T07:30:27;96488.56;;;9.86;100.00
5062;BME280;2351;50.812;12.872;2024-02-26T07:32:59;96480.63;;;10.28;100.00
5062;BME280;2351;50.812;12.872;2024-02-26T07:35:30;96484.00;;;10.46;100.00
5062;BME280;2351;50.812;12.872;2024-02-26T07:38:04;96482.16;;;10.38;100.00
5062;BME280;2351;50.812;12.872;2024-02-26T07:40:37;96490.09;;;10.47;100.00
5062;BME280;2351;50.812;12.872;2024-02-26T07:43:08;96487.75;;;10.68;100.00
5062;BME280;2351;50.812;12.872;2024-02-26T07:45:40;96491.84;;;10.88;100.00
5062;BME280;2351;50.812;12.872;2024-02-26T07:48:12;96488.47;;;11.02;100.00
5062;BME280;2351;50.812;12.872;2024-02-26T07:50:44;96490.03;;;11.28;100.00
5062;BME280;2351;50.812;12.872;2024-02-26T07:53:15;96489.78;;;11.78;100.00
5062;BME280;2351;50.812;12.872;2024-02-26T07:55:48;96484.97;;;12.04;100.00
5062;BME280;2351;50.812;12.872;2024-02-26T07:58:20;96482.09;;;12.38;100.00
5062;BME280;2351;50.812;12.872;2024-02-26T08:00:52;96484.88;;;12.59;100.00
5062;BME280;2351;50.812;12.872;2024-02-26T08:03:23;96485.63;;;12.83;99.64
5062;BME280;2351;50.812;12.872;2024-02-26T08:05:55;96484.53;;;13.22;97.95
5062;BME280;2351;50.812;12.872;2024-02-26T08:08:27;96490.56;;;13.16;94.70
5062;BME280;2351;50.812;12.872;2024-02-26T08:11:00;96491.41;;;12.87;93.21
5062;BME280;2351;50.812;12.872;2024-02-26T08:13:31;96500.56;;;12.84;91.94
5062;BME280;2351;50.812;12.872;2024-02-26T08:16:04;96487.81;;;12.94;88.46
5062;BME280;2351;50.812;12.872;2024-02-26T08:18:36;96493.22;;;13.16;86.77
5062;BME280;2351;50.812;12.872;2024-02-26T08:21:08;96497.31;;;13.64;84.01
5062;BME280;2351;50.812;12.872;2024-02-26T08:23:40;96495.22;;;14.18;83.04
5062;BME280;2351;50.812;12.872;2024-02-26T08:26:13;96492.91;;;14.58;84.93
5062;BME280;2351;50.812;12.872;2024-02-26T08:28:44;96505.03;;;14.89;66.06
5062;BME280;2351;50.812;12.872;2024-02-26T08:31:17;96504.13;;;14.53;62.19
5062;BME280;2351;50.812;12.872;2024-02-26T08:33:49;96503.84;;;14.41;64.68
5062;BME280;2351;50.812;12.872;2024-02-26T08:36:21;96499.53;;;14.19;57.92
5062;BME280;2351;50.812;12.872;2024-02-26T08:38:53;96504.41;;;14.15;61.09
5062;BME280;2351;50.812;12.872;2024-02-26T08:41:26;96511.22;;;14.46;52.02
5062;BME280;2351;50.812;12.872;2024-02-26T08:43:57;96502.03;;;13.17;51.05
5062;BME280;2351;50.812;12.872;2024-02-26T08:46:29;96507.72;;;13.29;55.95
5062;BME280;2351;50.812;12.872;2024-02-26T08:49:01;96508.78;;;13.34;55.68
5062;BME280;2351;50.812;12.872;2024-02-26T08:51:32;96507.81;;;12.90;55.50
5062;BME280;2351;50.812;12.872;2024-02-26T08:54:04;96509.56;;;12.45;55.35
5062;BME280;2351;50.812;12.872;2024-02-26T08:56:37;96511.66;;;11.80;55.25
5062;BME280;2351;50.812;12.872;2024-02-26T08:59:09;96501.97;;;11.24;54.02
5062;BME280;2351;50.812;12.872;2024-02-26T09:01:40;96507.72;;;10.05;59.47
5062;BME280;2351;50.812;12.872;2024-02-26T09:04:12;96513.69;;;9.99;61.43
5062;BME280;2351;50.812;12.872;2024-02-26T09:06:44;96510.72;;;9.93;62.48
5062;BME280;2351;50.812;12.872;2024-02-26T09:09:15;96508.88;;;9.94;63.26
5062;BME280;2351;50.812;12.872;2024-02-26T09:11:49;96514.97;;;9.86;63.61
5062;BME280;2351;50.812;12.872;2024-02-26T09:14:22;96519.94;;;9.89;64.45
5062;BME280;2351;50.812;12.872;2024-02-26T09:16:54;96518.63;;;9.85;63.54
5062;BME280;2351;50.812;12.872;2024-02-26T09:19:26;96512.34;;;9.86;68.20
5062;BME280;2351;50.812;12.872;2024-02-26T09:21:58;96516.19;;;10.33;66.26
5062;BME280;2351;50.812;12.872;2024-02-26T09:24:30;96508.25;;;10.75;62.52
5062;BME280;2351;50.812;12.872;2024-02-26T09:27:04;96513.50;;;10.83;63.92
5062;BME280;2351;50.812;12.872;2024-02-26T09:29:36;96507.44;;;10.58;61.91
5062;BME280;2351;50.812;12.872;2024-02-26T09:32:07;96512.41;;;10.61;63.47
5062;BME280;2351;50.812;12.872;2024-02-26T09:34:40;96519.66;;;10.50;61.71
5062;BME280;2351;50.812;12.872;2024-02-26T09:37:11;96516.06;;;10.43;65.00
5062;BME280;2351;50.812;12.872;2024-02-26T09:39:44;96525.78;;;10.34;62.20
5062;BME280;2351;50.812;12.872;2024-02-26T09:42:18;96531.84;;;9.34;66.27
5062;BME280;2351;50.812;12.872;2024-02-26T09:44:51;96533.28;;;9.71;66.92
5062;BME280;2351;50.812;12.872;2024-02-26T09:47:25;96534.88;;;9.56;64.76
5062;BME280;2351;50.812;12.872;2024-02-26T09:49:59;96537.78;;;9.79;66.71
5062;BME280;2351;50.812;12.872;2024-02-26T09:52:33;96528.41;;;10.09;68.33
5062;BME280;2351;50.812;12.872;2024-02-26T09:55:07;96539.50;;;10.38;64.83
5062;BME280;2351;50.812;12.872;2024-02-26T09:57:44;96560.44;;;9.90;62.93
5062;BME280;2351;50.812;12.872;2024-02-26T10:00:18;96546.31;;;9.64;66.89
5062;BME280;2351;50.812;12.872;2024-02-26T10:02:52;96546.44;;;9.46;68.02
5062;BME280;2351;50.812;12.872;2024-02-26T10:05:24;96541.38;;;9.70;68.37
5062;BME280;2351;50.812;12.872;2024-02-26T10:07:57;96541.69;;;9.58;65.45
5062;BME280;2351;50.812;12.872;2024-02-26T10:10:32;96531.91;;;9.50;67.93
5062;BME280;2351;50.812;12.872;2024-02-26T10:13:05;96545.97;;;9.59;67.49
5062;BME280;2351;50.812;12.872;2024-02-26T10:15:40;96542.72;;;9.74;67.28
5062;BME280;2351;50.812;12.872;2024-02-26T10:18:12;96543.97;;;9.61;65.69
5062;BME280;2351;50.812;12.872;2024-02-26T10:20:59;96544.28;;;9.50;68.25
5062;BME280;2351;50.812;12.872;2024-02-26T10:23:31;96551.31;;;9.84;67.79
5062;BME280;2351;50.812;12.872;2024-02-26T10:26:03;96543.75;;;9.98;66.25
5062;BME280;2351;50.812;12.872;2024-02-26T10:28:36;96554.16;;;10.16;66.53
5062;BME280;2351;50.812;12.872;2024-02-26T10:31:08;96557.53;;;10.34;65.16
5062;BME280;2351;50.812;12.872;2024-02-26T10:33:42;96561.19;;;10.58;64.90
5062;BME280;2351;50.812;12.872;2024-02-26T10:36:14;96563.31;;;10.54;63.30
5062;BME280;2351;50.812;12.872;2024-02-26T10:38:46;96558.31;;;10.27;63.07
5062;BME280;2351;50.812;12.872;2024-02-26T10:41:17;96558.00;;;10.38;64.77
5062;BME280;2351;50.812;12.872;2024-02-26T10:43:51;96554.38;;;10.55;63.11
5062;BME280;2351;50.812;12.872;2024-02-26T10:46:22;96547.28;;;10.48;63.16
5062;BME280;2351;50.812;12.872;2024-02-26T10:48:54;96543.81;;;10.64;63.85
5062;BME280;2351;50.812;12.872;2024-02-26T10:51:28;96545.44;;;10.73;63.52
5062;BME280;2351;50.812;12.872;2024-02-26T10:54:00;96544.81;;;10.46;62.06
5062;BME280;2351;50.812;12.872;2024-02-26T10:56:34;96545.94;;;10.68;63.58
5062;BME280;2351;50.812;12.872;2024-02-26T10:59:11;96548.09;;;10.57;62.54
5062;BME280;2351;50.812;12.872;2024-02-26T11:01:43;96544.16;;;10.61;60.98
5062;BME280;2351;50.812;12.872;2024-02-26T11:04:17;96547.44;;;10.63;63.09
5062;BME280;2351;50.812;12.872;2024-02-26T11:06:49;96550.88;;;10.88;61.65
5062;BME280;2351;50.812;12.872;2024-02-26T11:09:21;96555.16;;;11.06;59.68
5062;BME280;2351;50.812;12.872;2024-02-26T11:11:54;96554.38;;;10.89;59.63
5062;BME280;2351;50.812;12.872;2024-02-26T11:14:29;96551.69;;;10.97;58.73
5062;BME280;2351;50.812;12.872;2024-02-26T11:17:02;96543.47;;;10.75;59.62
5062;BME280;2351;50.812;12.872;2024-02-26T11:19:35;96541.72;;;11.15;60.72
5062;BME280;2351;50.812;12.872;2024-02-26T11:22:07;96545.91;;;11.50;61.00
5062;BME280;2351;50.812;12.872;2024-02-26T11:24:39;96544.03;;;11.67;60.60
5062;BME280;2351;50.812;12.872;2024-02-26T11:27:13;96541.28;;;11.83;60.39
5062;BME280;2351;50.812;12.872;2024-02-26T11:29:51;96532.75;;;11.96;58.36
5062;BME280;2351;50.812;12.872;2024-02-26T11:32:23;96541.75;;;11.55;56.07
5062;BME280;2351;50.812;12.872;2024-02-26T11:34:56;96539.44;;;11.52;58.02
5062;BME280;2351;50.812;12.872;2024-02-26T11:37:28;96539.88;;;11.64;58.47
5062;BME280;2351;50.812;12.872;2024-02-26T11:40:01;96540.97;;;11.78;58.79
5062;BME280;2351;50.812;12.872;2024-02-26T11:42:34;96540.44;;;11.83;57.38
5062;BME280;2351;50.812;12.872;2024-02-26T11:45:48;96542.50;;;11.72;58.14
5062;BME280;2351;50.812;12.872;2024-02-26T11:48:23;96543.31;;;11.73;58.63
5062;BME280;2351;50.812;12.872;2024-02-26T11:50:55;96542.22;;;11.59;58.23
5062;BME280;2351;50.812;12.872;2024-02-26T11:53:30;96549.91;;;11.37;58.63
5062;BME280;2351;50.812;12.872;2024-02-26T11:56:21;96539.31;;;11.37;59.59
5062;BME280;2351;50.812;12.872;2024-02-26T11:58:57;96551.63;;;11.22;59.83
5062;BME280;2351;50.812;12.872;2024-02-26T12:01:40;96548.97;;;11.30;60.21
5062;BME280;2351;50.812;12.872;2024-02-26T12:04:17;96548.63;;;11.33;60.41
5062;BME280;2351;50.812;12.872;2024-02-26T12:06:51;96547.28;;;11.37;60.74
5062;BME280;2351;50.812;12.872;2024-02-26T12:09:34;96547.25;;;11.45;60.84
5062;BME280;2351;50.812;12.872;2024-02-26T12:12:07;96548.84;;;11.15;60.30
5062;BME280;2351;50.812;12.872;2024-02-26T12:14:40;96549.78;;;11.30;61.39
5062;BME280;2351;50.812;12.872;2024-02-26T12:17:20;96546.84;;;11.25;60.93
5062;BME280;2351;50.812;12.872;2024-02-26T12:19:52;96552.06;;;11.42;61.70
5062;BME280;2351;50.812;12.872;2024-02-26T12:22:27;96559.84;;;11.43;60.58
5062;BME280;2351;50.812;12.872;2024-02-26T12:24:59;96558.03;;;11.36;61.02
5062;BME280;2351;50.812;12.872;2024-02-26T12:27:33;96555.38;;;11.44;61.48
5062;BME280;2351;50.812;12.872;2024-02-26T12:30:06;96552.19;;;11.57;61.29
5062;BME280;2351;50.812;12.872;2024-02-26T12:32:39;96555.44;;;11.67;61.30
5062;BME280;2351;50.812;12.872;2024-02-26T12:35:11;96556.06;;;11.78;61.50
5062;BME280;2351;50.812;12.872;2024-02-26T12:37:44;96572.09;;;11.84;61.21
5062;BME280;2351;50.812;12.872;2024-02-26T12:40:15;96563.59;;;11.89;61.11
5062;BME280;2351;50.812;12.872;2024-02-26T12:42:47;96553.53;;;11.44;59.50
5062;BME280;2351;50.812;12.872;2024-02-26T12:45:19;96566.59;;;10.98;60.51
5062;BME280;2351;50.812;12.872;2024-02-26T12:47:52;96564.06;;;11.21;61.37
5062;BME280;2351;50.812;12.872;2024-02-26T12:50:24;96576.41;;;11.37;61.93
5062;BME280;2351;50.812;12.872;2024-02-26T12:52:56;96566.19;;;11.18;61.17
5062;BME280;2351;50.812;12.872;2024-02-26T12:55:28;96568.69;;;11.19;61.04
5062;BME280;2351;50.812;12.872;2024-02-26T12:58:00;96566.25;;;11.01;62.14
5062;BME280;2351;50.812;12.872;2024-02-26T13:00:32;96577.03;;;10.75;62.93
5062;BME280;2351;50.812;12.872;2024-02-26T13:03:06;96576.38;;;10.64;62.91
5062;BME280;2351;50.812;12.872;2024-02-26T13:05:38;96578.19;;;10.72;63.33
5062;BME280;2351;50.812;12.872;2024-02-26T13:08:10;96592.41;;;10.54;62.33
5062;BME280;2351;50.812;12.872;2024-02-26T13:10:48;96599.31;;;10.22;63.65
5062;BME280;2351;50.812;12.872;2024-02-26T13:13:22;96608.38;;;10.20;64.08
5062;BME280;2351;50.812;12.872;2024-02-26T13:16:01;96613.19;;;10.16;65.12
5062;BME280;2351;50.812;12.872;2024-02-26T13:18:34;96609.84;;;10.06;65.21
5062;BME280;2351;50.812;12.872;2024-02-26T13:21:08;96612.47;;;10.06;65.82
5062;BME280;2351;50.812;12.872;2024-02-26T13:23:40;96617.78;;;10.14;64.88
5062;BME280;2351;50.812;12.872;2024-02-26T13:26:12;96620.69;;;9.86;66.04
5062;BME280;2351;50.812;12.872;2024-02-26T13:28:45;96624.84;;;9.89;67.11
5062;BME280;2351;50.812;12.872;2024-02-26T13:31:16;96627.88;;;10.10;67.76
5062;BME280;2351;50.812;12.872;2024-02-26T13:33:50;96620.38;;;9.89;67.33
5062;BME280;2351;50.812;12.872;2024-02-26T13:36:25;96619.72;;;9.95;68.23